Time;durP1;ratioP1;P1;durP2;ratioP2;P2;SDS_P1;SDS_P2;PMS_P1;PMS_P2;Temp;Humidity;BMP_temperature;BMP_pressure;BME280_temperature;BME280_humidity;BME280_pressure;Samples;Min_cycle;Max_cycle;Signal;HPM_P1;HPM_P2
2023/09/15 00:01:31;;;;;;;11.73;6.22;;;13.60;99.90;;;;;;5090319;28;20165;-60
2023/09/15 00:03:58;;;;;;;12.23;7.40;;;13.50;99.90;;;;;;5093434;28;20497;-52
2023/09/15 00:06:24;;;;;;;10.10;6.47;;;13.60;99.90;;;;;;5097894;28;20012;-51
2023/09/15 00:08:50;;;;;;;10.65;6.47;;;13.60;99.90;;;;;;5090312;28;20068;-53
2023/09/15 00:11:17;;;;;;;11.73;6.90;;;13.50;99.90;;;;;;5090182;28;20066;-52
2023/09/15 00:13:43;;;;;;;11.65;6.50;;;13.50;99.90;;;;;;5089930;28;20027;-58
2023/09/15 00:16:09;;;;;;;11.77;6.43;;;13.40;99.90;;;;;;5090429;28;20027;-52
2023/09/15 00:18:35;;;;;;;14.20;7.15;;;13.30;99.90;;;;;;5092860;28;20837;-55
2023/09/15 00:21:01;;;;;;;15.07;6.97;;;13.20;99.90;;;;;;5092858;28;20027;-49
2023/09/15 00:23:27;;;;;;;12.77;6.32;;;13.20;99.90;;;;;;5094961;28;20531;-54
2023/09/15 00:25:54;;;;;;;11.27;5.80;;;13.10;99.90;;;;;;5093934;28;20027;-47
2023/09/15 00:28:21;;;;;;;13.18;5.90;;;13.00;99.90;;;;;;5093737;28;20020;-45
2023/09/15 00:30:50;;;;;;;9.13;5.05;;;13.00;99.90;;;;;;5096631;28;20131;-49
2023/09/15 00:33:16;;;;;;;12.10;5.10;;;13.10;99.90;;;;;;5093598;28;20036;-48
2023/09/15 00:35:42;;;;;;;10.00;4.97;;;13.10;99.90;;;;;;5094295;28;20028;-55
2023/09/15 00:38:07;;;;;;;9.35;5.07;;;13.00;99.90;;;;;;5105570;27;20046;-53
2023/09/15 00:40:33;;;;;;;8.75;4.63;;;13.00;99.90;;;;;;5114192;27;20038;-54
2023/09/15 00:42:58;;;;;;;10.85;4.70;;;13.00;99.90;;;;;;5114304;27;20024;-53
2023/09/15 00:45:25;;;;;;;8.93;4.78;;;13.10;99.90;;;;;;5113935;27;20106;-52
2023/09/15 00:48:00;;;;;;;9.52;4.68;;;13.00;99.90;;;;;;5095690;28;20095;-53
2023/09/15 00:50:29;;;;;;;8.13;4.85;;;13.00;99.90;;;;;;5113772;27;20028;-56
2023/09/15 00:53:02;;;;;;;9.60;4.80;;;13.10;99.90;;;;;;5114890;27;20069;-52
2023/09/15 00:55:29;;;;;;;10.95;4.45;;;13.00;99.90;;;;;;5114008;27;20136;-49
2023/09/15 00:57:56;;;;;;;9.23;4.63;;;13.00;99.90;;;;;;5114077;28;20044;-59
2023/09/15 01:00:22;;;;;;;10.88;3.92;;;13.00;99.90;;;;;;5127211;27;20454;-52
2023/09/15 01:02:49;;;;;;;10.65;4.10;;;13.00;99.90;;;;;;5113898;28;20103;-57
2023/09/15 01:05:20;;;;;;;9.68;4.40;;;13.00;99.90;;;;;;5113801;28;20369;-53
2023/09/15 01:07:48;;;;;;;10.70;3.28;;;13.00;99.90;;;;;;5113767;28;20482;-56
2023/09/15 01:10:14;;;;;;;9.43;3.35;;;12.90;99.90;;;;;;5114047;28;20031;-55
2023/09/15 01:12:42;;;;;;;8.60;3.55;;;13.00;99.90;;;;;;5113727;28;20527;-55
2023/09/15 01:15:08;;;;;;;5.80;2.40;;;13.00;99.90;;;;;;5117621;27;20020;-58
2023/09/15 01:17:48;;;;;;;6.35;2.83;;;13.00;99.90;;;;;;5122627;27;20023;-48
2023/09/15 01:20:35;;;;;;;5.07;2.75;;;13.00;99.90;;;;;;5123804;27;20113;-47
2023/09/15 01:23:10;;;;;;;5.70;2.97;;;13.00;99.90;;;;;;5113947;28;20019;-49
2023/09/15 01:25:57;;;;;;;5.82;2.70;;;13.00;99.90;;;;;;5115351;27;20088;-56
2023/09/15 01:28:43;;;;;;;8.27;2.70;;;12.90;99.90;;;;;;5120611;27;20023;-55
2023/09/15 01:31:11;;;;;;;5.68;2.42;;;12.90;99.90;;;;;;5127550;27;20047;-52
2023/09/15 01:33:37;;;;;;;5.07;2.55;;;12.90;99.90;;;;;;5124831;27;20027;-44
2023/09/15 01:36:03;;;;;;;5.57;2.80;;;12.80;99.90;;;;;;5125514;27;20106;-47
2023/09/15 01:38:31;;;;;;;5.35;2.53;;;12.80;99.90;;;;;;5113081;28;20131;-58
2023/09/15 01:40:57;;;;;;;5.70;2.42;;;12.80;99.90;;;;;;5128695;27;20031;-51
2023/09/15 01:43:22;;;;;;;4.50;2.38;;;12.70;99.90;;;;;;5120998;27;20361;-58
2023/09/15 01:45:48;;;;;;;4.72;2.05;;;12.70;99.90;;;;;;5118437;27;20510;-55
2023/09/15 01:48:15;;;;;;;3.33;1.98;;;12.70;99.90;;;;;;5125146;27;20091;-55
2023/09/15 01:50:42;;;;;;;4.22;2.65;;;12.70;99.90;;;;;;5128309;27;20031;-58
2023/09/15 01:53:07;;;;;;;7.68;2.67;;;12.70;99.90;;;;;;5131959;27;20502;-54
2023/09/15 01:55:34;;;;;;;6.70;2.17;;;12.60;99.90;;;;;;5133309;27;20031;-55
2023/09/15 01:58:00;;;;;;;4.32;2.42;;;12.70;99.90;;;;;;5133049;27;20015;-57
2023/09/15 02:00:34;;;;;;;4.65;2.42;;;12.70;99.90;;;;;;5133396;27;20016;-55
2023/09/15 02:03:00;;;;;;;5.30;2.53;;;12.70;99.90;;;;;;5132155;27;20027;-52
2023/09/15 02:05:25;;;;;;;4.57;2.25;;;12.60;99.90;;;;;;5132826;27;20046;-55
2023/09/15 02:07:51;;;;;;;4.47;2.40;;;12.60;99.90;;;;;;5133064;27;20189;-45
2023/09/15 02:10:17;;;;;;;4.70;2.10;;;12.60;99.90;;;;;;5133027;27;20063;-57
2023/09/15 02:12:42;;;;;;;7.00;2.42;;;12.60;99.90;;;;;;5132762;27;20023;-51
2023/09/15 02:15:08;;;;;;;4.28;2.35;;;12.50;99.90;;;;;;5132369;27;20428;-47
2023/09/15 02:17:34;;;;;;;4.65;2.30;;;12.40;99.90;;;;;;5132546;27;20542;-53
2023/09/15 02:19:59;;;;;;;7.47;2.67;;;12.40;99.90;;;;;;5121655;27;20110;-50
2023/09/15 02:22:26;;;;;;;3.60;2.08;;;12.40;99.90;;;;;;5132714;27;20023;-59
2023/09/15 02:24:51;;;;;;;8.02;2.67;;;12.40;99.90;;;;;;5132516;27;20023;-55
2023/09/15 02:27:17;;;;;;;4.60;2.22;;;12.40;99.90;;;;;;5114447;27;20031;-51
2023/09/15 02:29:43;;;;;;;4.70;2.17;;;12.40;99.90;;;;;;5131675;27;20497;-44
2023/09/15 02:32:08;;;;;;;4.20;2.00;;;12.40;99.90;;;;;;5132533;27;20018;-49
2023/09/15 02:34:34;;;;;;;4.03;2.40;;;12.40;99.90;;;;;;5132727;27;20361;-53
2023/09/15 02:36:59;;;;;;;3.67;1.95;;;12.30;99.90;;;;;;5132165;27;20079;-52
2023/09/15 02:39:25;;;;;;;4.32;2.30;;;12.40;99.90;;;;;;5128959;27;20027;-48
2023/09/15 02:41:51;;;;;;;3.33;2.03;;;12.40;99.90;;;;;;5114870;27;20070;-46
2023/09/15 02:44:16;;;;;;;3.30;1.70;;;12.30;99.90;;;;;;5124892;27;20560;-49
2023/09/15 02:46:42;;;;;;;5.07;2.00;;;12.30;99.90;;;;;;5126879;27;20026;-54
2023/09/15 02:49:08;;;;;;;3.45;1.67;;;12.30;99.90;;;;;;5123872;27;20570;-49
2023/09/15 02:51:34;;;;;;;3.40;1.83;;;12.40;99.90;;;;;;5123295;27;20552;-51
2023/09/15 02:53:59;;;;;;;4.40;1.92;;;12.40;99.90;;;;;;5127237;27;20065;-51
2023/09/15 02:56:25;;;;;;;3.17;1.85;;;12.40;99.90;;;;;;5132046;27;20023;-55
2023/09/15 02:58:51;;;;;;;3.97;1.85;;;12.40;99.90;;;;;;5131823;27;20072;-47
2023/09/15 03:01:17;;;;;;;3.53;1.88;;;12.40;99.90;;;;;;5131482;27;20479;-51
2023/09/15 03:03:43;;;;;;;4.28;1.77;;;12.40;99.90;;;;;;5132101;27;20035;-55
2023/09/15 03:06:09;;;;;;;3.92;2.13;;;12.50;99.90;;;;;;5131456;27;20031;-44
2023/09/15 03:08:35;;;;;;;2.92;1.73;;;12.50;99.90;;;;;;5131867;27;20023;-48
2023/09/15 03:11:01;;;;;;;5.13;1.80;;;12.50;99.90;;;;;;5131733;27;20110;-44
2023/09/15 03:13:27;;;;;;;3.67;2.00;;;12.50;99.90;;;;;;5131569;27;20415;-53
2023/09/15 03:15:52;;;;;;;2.50;1.70;;;12.50;99.90;;;;;;5131659;27;20087;-54
2023/09/15 03:18:18;;;;;;;3.13;1.55;;;12.50;99.90;;;;;;5131605;27;20106;-50
2023/09/15 03:20:44;;;;;;;3.10;1.75;;;12.50;99.90;;;;;;5131739;27;20042;-58
2023/09/15 03:23:09;;;;;;;4.88;2.10;;;12.40;99.90;;;;;;5131321;27;20171;-43
2023/09/15 03:25:35;;;;;;;4.70;2.00;;;12.40;99.90;;;;;;5131521;27;20027;-53
2023/09/15 03:28:01;;;;;;;2.55;1.60;;;12.40;99.90;;;;;;5131664;27;20080;-47
2023/09/15 03:30:26;;;;;;;4.25;2.00;;;12.40;99.90;;;;;;5131099;27;20035;-52
2023/09/15 03:32:53;;;;;;;5.63;1.88;;;12.30;99.90;;;;;;5123710;27;20028;-47
2023/09/15 03:35:18;;;;;;;5.05;1.85;;;12.30;99.90;;;;;;5131336;27;20019;-51
2023/09/15 03:37:45;;;;;;;2.17;1.33;;;12.30;99.90;;;;;;5131287;27;20047;-47
2023/09/15 03:40:11;;;;;;;2.60;1.58;;;12.30;99.90;;;;;;5131149;27;20027;-58
2023/09/15 03:42:37;;;;;;;2.97;1.60;;;12.30;99.90;;;;;;5131349;27;20022;-46
2023/09/15 03:45:07;;;;;;;4.47;1.98;;;12.30;99.90;;;;;;5131383;27;20050;-47
2023/09/15 03:47:33;;;;;;;6.45;2.00;;;12.30;99.90;;;;;;5130796;27;20031;-48
2023/09/15 03:49:59;;;;;;;3.00;1.77;;;12.40;99.90;;;;;;5130983;27;20050;-43
2023/09/15 03:52:24;;;;;;;5.70;1.88;;;12.30;99.90;;;;;;5130586;27;20410;-46
2023/09/15 03:54:50;;;;;;;3.70;1.73;;;12.30;99.90;;;;;;5120126;28;20481;-51
2023/09/15 03:57:15;;;;;;;3.30;1.65;;;12.30;99.90;;;;;;5131341;27;20027;-55
2023/09/15 03:59:41;;;;;;;5.38;1.90;;;12.30;99.90;;;;;;5131161;28;20033;-54
2023/09/15 04:02:07;;;;;;;3.85;1.92;;;12.30;99.90;;;;;;5130764;28;20064;-57
2023/09/15 04:04:32;;;;;;;4.15;1.95;;;12.20;99.90;;;;;;5131154;28;20031;-52
2023/09/15 04:06:58;;;;;;;3.80;1.50;;;12.20;99.90;;;;;;5131056;27;20042;-55
2023/09/15 04:09:26;;;;;;;3.22;1.60;;;12.20;99.90;;;;;;5131012;28;20372;-57
2023/09/15 04:11:54;;;;;;;3.75;2.08;;;12.10;99.90;;;;;;5131007;28;20039;-54
2023/09/15 04:14:20;;;;;;;2.92;1.50;;;12.10;99.90;;;;;;5130533;27;20122;-41
2023/09/15 04:16:45;;;;;;;3.03;1.73;;;12.10;99.90;;;;;;5130446;28;20119;-42
2023/09/15 04:19:11;;;;;;;3.70;1.92;;;12.00;99.90;;;;;;5130749;28;20512;-41
2023/09/15 04:21:38;;;;;;;5.00;2.03;;;12.10;99.90;;;;;;5112282;28;20095;-42
2023/09/15 04:24:05;;;;;;;4.35;2.00;;;12.10;99.90;;;;;;5118453;28;20045;-52
2023/09/15 04:26:31;;;;;;;3.45;1.75;;;12.10;99.90;;;;;;5131041;27;20028;-57
2023/09/15 04:28:58;;;;;;;4.53;1.88;;;12.10;99.90;;;;;;5130475;27;20412;-48
2023/09/15 04:31:23;;;;;;;3.72;1.67;;;12.10;99.90;;;;;;5127172;27;20063;-43
2023/09/15 04:33:49;;;;;;;4.25;2.00;;;12.10;99.90;;;;;;5130379;27;20027;-59
2023/09/15 04:36:16;;;;;;;4.13;2.13;;;12.00;99.90;;;;;;5130670;27;20027;-43
2023/09/15 04:38:42;;;;;;;4.25;1.90;;;12.00;99.90;;;;;;5130519;27;20196;-58
2023/09/15 04:41:08;;;;;;;3.63;1.83;;;11.90;99.90;;;;;;5130777;27;20531;-55
2023/09/15 04:43:33;;;;;;;3.30;1.73;;;11.90;99.90;;;;;;5130813;27;20025;-51
2023/09/15 04:45:59;;;;;;;3.20;1.77;;;11.90;99.90;;;;;;5130610;28;20387;-49
2023/09/15 04:48:25;;;;;;;3.95;2.05;;;11.90;99.90;;;;;;5130692;27;20051;-57
2023/09/15 04:50:50;;;;;;;4.25;2.25;;;11.90;99.90;;;;;;5130740;28;20031;-54
2023/09/15 04:53:16;;;;;;;5.53;1.92;;;11.90;99.90;;;;;;5126624;28;20024;-51
2023/09/15 04:55:42;;;;;;;3.08;1.55;;;11.90;99.90;;;;;;5130704;27;20023;-59
2023/09/15 04:58:08;;;;;;;2.85;1.50;;;11.90;99.90;;;;;;5130271;27;20030;-47
2023/09/15 05:00:34;;;;;;;4.18;1.88;;;11.90;99.90;;;;;;5130546;27;20093;-46
2023/09/15 05:03:03;;;;;;;3.30;1.90;;;11.80;99.90;;;;;;5130245;28;20104;-52
2023/09/15 05:05:29;;;;;;;3.60;2.15;;;11.80;99.90;;;;;;5132981;27;20020;-42
2023/09/15 05:07:56;;;;;;;3.70;1.90;;;11.80;99.90;;;;;;5134294;27;20031;-55
2023/09/15 05:10:21;;;;;;;5.35;2.17;;;11.90;99.90;;;;;;5134033;27;20031;-52
2023/09/15 05:12:47;;;;;;;3.78;1.95;;;11.90;99.90;;;;;;5134373;27;20095;-49
2023/09/15 05:15:13;;;;;;;4.32;2.00;;;11.90;99.90;;;;;;5134002;27;20055;-44
2023/09/15 05:17:38;;;;;;;5.60;2.20;;;11.90;99.90;;;;;;5133635;27;20085;-55
2023/09/15 05:20:04;;;;;;;2.78;1.55;;;12.00;99.90;;;;;;5133973;27;20023;-55
2023/09/15 05:22:30;;;;;;;3.28;1.80;;;12.00;99.90;;;;;;5134371;27;20023;-57
2023/09/15 05:24:55;;;;;;;3.65;1.80;;;12.00;99.90;;;;;;5133939;27;20046;-52
2023/09/15 05:27:21;;;;;;;3.95;1.88;;;12.00;99.90;;;;;;5134231;27;20495;-59
2023/09/15 05:29:47;;;;;;;4.28;2.33;;;12.00;99.90;;;;;;5133554;27;20039;-54
2023/09/15 05:32:12;;;;;;;3.65;1.95;;;12.10;99.90;;;;;;5133335;27;20022;-53
2023/09/15 05:34:38;;;;;;;3.13;1.85;;;12.00;99.90;;;;;;5115465;27;20103;-49
2023/09/15 05:37:04;;;;;;;3.15;2.03;;;12.00;99.90;;;;;;5133539;27;20506;-56
2023/09/15 05:39:32;;;;;;;6.15;2.50;;;12.00;99.90;;;;;;5115319;27;20031;-50
2023/09/15 05:41:58;;;;;;;3.17;1.80;;;12.00;99.90;;;;;;5133745;27;20027;-49
2023/09/15 05:44:24;;;;;;;3.72;1.98;;;12.10;99.90;;;;;;5133551;27;20494;-52
2023/09/15 05:46:52;;;;;;;2.67;1.50;;;12.10;99.90;;;;;;5133279;27;20031;-51
2023/09/15 05:49:18;;;;;;;5.03;2.35;;;12.10;99.90;;;;;;5132972;27;20178;-44
2023/09/15 05:51:43;;;;;;;5.82;2.15;;;12.10;99.90;;;;;;5133773;27;20043;-51
2023/09/15 05:54:09;;;;;;;2.90;1.60;;;12.10;99.90;;;;;;5131977;27;20054;-51
2023/09/15 05:56:34;;;;;;;4.25;1.70;;;12.10;99.90;;;;;;5133623;27;20102;-56
2023/09/15 05:59:00;;;;;;;6.50;2.00;;;12.10;99.90;;;;;;5133347;27;20536;-46
2023/09/15 06:01:26;;;;;;;4.47;1.70;;;12.10;99.90;;;;;;5132980;27;20042;-45
2023/09/15 06:03:51;;;;;;;3.40;1.90;;;12.10;99.90;;;;;;5133151;27;20027;-51
2023/09/15 06:06:17;;;;;;;3.88;1.73;;;12.20;99.90;;;;;;5133191;27;20035;-49
2023/09/15 06:08:42;;;;;;;3.83;1.80;;;12.20;99.90;;;;;;5132820;27;20404;-52
2023/09/15 06:11:08;;;;;;;3.70;1.70;;;12.30;99.90;;;;;;5133128;27;20030;-54
2023/09/15 06:13:34;;;;;;;5.40;2.03;;;12.30;99.90;;;;;;5132769;27;20027;-46
2023/09/15 06:16:00;;;;;;;4.38;2.20;;;12.30;99.90;;;;;;5132651;27;20048;-53
2023/09/15 06:18:26;;;;;;;4.28;2.03;;;12.30;99.90;;;;;;5132471;27;20482;-42
2023/09/15 06:20:56;;;;;;;2.53;1.60;;;12.40;99.90;;;;;;5132687;27;20038;-53
2023/09/15 06:23:25;;;;;;;3.15;1.90;;;12.40;99.90;;;;;;5132455;27;20098;-55
2023/09/15 06:25:53;;;;;;;3.83;1.90;;;12.40;99.90;;;;;;5133046;27;20448;-54
2023/09/15 06:28:19;;;;;;;5.22;2.35;;;12.50;99.90;;;;;;5132323;27;20328;-49
2023/09/15 06:30:44;;;;;;;3.80;2.00;;;12.60;99.90;;;;;;5132612;27;20054;-57
2023/09/15 06:33:10;;;;;;;3.42;1.73;;;12.70;99.90;;;;;;5132453;27;20072;-49
2023/09/15 06:35:36;;;;;;;5.15;2.47;;;12.80;99.90;;;;;;5132135;27;20019;-56
2023/09/15 06:38:02;;;;;;;5.05;2.40;;;12.90;99.90;;;;;;5132063;27;20039;-56
2023/09/15 06:40:28;;;;;;;3.92;1.90;;;13.10;99.90;;;;;;5132501;27;20375;-59
2023/09/15 06:42:54;;;;;;;2.92;1.80;;;13.20;99.90;;;;;;5132618;27;20030;-50
2023/09/15 06:45:19;;;;;;;4.03;1.80;;;13.30;99.90;;;;;;5132347;27;20091;-46
2023/09/15 06:47:45;;;;;;;4.82;1.70;;;13.50;99.90;;;;;;5132159;27;20103;-53
2023/09/15 06:50:10;;;;;;;4.00;1.92;;;13.50;99.90;;;;;;5132209;27;20047;-50
2023/09/15 06:52:36;;;;;;;4.55;1.85;;;13.70;99.90;;;;;;5131004;27;20034;-53
2023/09/15 06:55:02;;;;;;;4.00;1.83;;;13.70;99.90;;;;;;5118313;27;20383;-56
2023/09/15 06:57:28;;;;;;;4.80;2.05;;;13.80;99.90;;;;;;5118950;27;20048;-56
2023/09/15 06:59:53;;;;;;;5.55;1.90;;;13.90;99.90;;;;;;5118334;27;20031;-43
2023/09/15 07:02:19;;;;;;;4.63;2.60;;;14.00;99.90;;;;;;5111655;28;20023;-56
2023/09/15 07:04:45;;;;;;;6.35;1.85;;;14.20;99.90;;;;;;5127001;27;20027;-54
2023/09/15 07:07:10;;;;;;;3.38;1.83;;;14.30;99.90;;;;;;5125125;27;20118;-48
2023/09/15 07:09:36;;;;;;;3.13;1.75;;;14.50;99.90;;;;;;5128938;27;20046;-55
2023/09/15 07:12:03;;;;;;;4.85;2.00;;;14.70;99.90;;;;;;5116353;27;20479;-54
2023/09/15 07:14:29;;;;;;;2.55;1.58;;;14.90;99.90;;;;;;5121478;27;20396;-57
2023/09/15 07:16:55;;;;;;;2.88;1.25;;;15.00;99.90;;;;;;5111979;28;20045;-55
2023/09/15 07:19:20;;;;;;;3.40;1.58;;;15.30;99.90;;;;;;5125102;27;20050;-54
2023/09/15 07:21:47;;;;;;;2.90;1.55;;;15.60;99.90;;;;;;5127631;27;20127;-58
2023/09/15 07:24:12;;;;;;;2.22;1.40;;;16.10;99.90;;;;;;5126014;27;20016;-48
2023/09/15 07:26:38;;;;;;;4.57;1.95;;;16.50;99.90;;;;;;5115998;27;20046;-49
2023/09/15 07:29:04;;;;;;;2.75;1.50;;;17.00;99.90;;;;;;5130220;27;20031;-56
2023/09/15 07:31:37;;;;;;;4.22;1.75;;;17.50;99.90;;;;;;5119675;27;20072;-53
2023/09/15 07:34:03;;;;;;;3.70;1.38;;;17.50;99.90;;;;;;5115511;27;20395;-49
2023/09/15 07:36:29;;;;;;;3.47;1.40;;;17.30;99.90;;;;;;5113804;27;20023;-54
2023/09/15 07:38:54;;;;;;;2.63;1.42;;;17.00;99.90;;;;;;5119616;27;20456;-52
2023/09/15 07:41:20;;;;;;;4.85;1.85;;;16.90;99.90;;;;;;5122110;27;20023;-52
2023/09/15 07:43:46;;;;;;;3.17;1.35;;;16.80;99.90;;;;;;5118668;27;20050;-55
2023/09/15 07:46:14;;;;;;;2.95;1.58;;;17.10;99.90;;;;;;5118962;27;20352;-53
2023/09/15 07:48:41;;;;;;;7.65;1.85;;;17.60;99.90;;;;;;5124941;27;20067;-45
2023/09/15 07:51:07;;;;;;;4.13;1.70;;;18.30;99.90;;;;;;5122057;27;20160;-55
2023/09/15 07:53:32;;;;;;;3.42;1.73;;;18.90;99.90;;;;;;5115398;28;20094;-46
2023/09/15 07:55:58;;;;;;;5.03;1.80;;;19.60;99.90;;;;;;5118980;28;20023;-59
2023/09/15 07:58:24;;;;;;;4.57;1.83;;;20.20;99.90;;;;;;5119790;28;20024;-52
2023/09/15 08:00:49;;;;;;;3.42;2.00;;;20.60;99.90;;;;;;5123237;27;20030;-46
2023/09/15 08:03:15;;;;;;;3.33;1.75;;;21.10;99.90;;;;;;5121413;28;20027;-52
2023/09/15 08:05:40;;;;;;;7.93;2.50;;;21.70;99.90;;;;;;5124180;27;20023;-49
2023/09/15 08:08:06;;;;;;;5.40;2.90;;;22.00;99.90;;;;;;5113134;27;20030;-48
2023/09/15 08:10:32;;;;;;;5.90;3.60;;;22.50;99.90;;;;;;5127887;27;20503;-43
2023/09/15 08:12:57;;;;;;;5.43;3.50;;;22.80;99.90;;;;;;5118860;28;20050;-57
2023/09/15 08:15:23;;;;;;;7.18;3.03;;;23.10;99.90;;;;;;5116187;28;20034;-57
2023/09/15 08:17:49;;;;;;;5.28;3.20;;;23.40;99.90;;;;;;5117977;28;20201;-53
2023/09/15 08:20:15;;;;;;;6.40;3.40;;;23.80;99.90;;;;;;5119311;28;20032;-56
2023/09/15 08:22:41;;;;;;;4.95;2.90;;;24.10;99.90;;;;;;5111844;28;20019;-53
2023/09/15 08:25:10;;;;;;;3.88;2.35;;;24.30;99.90;;;;;;5120837;28;20035;-58
2023/09/15 08:27:36;;;;;;;5.25;3.10;;;24.60;99.90;;;;;;5125099;28;20023;-54
2023/09/15 08:30:03;;;;;;;3.83;2.50;;;25.00;99.90;;;;;;5125997;27;20039;-53
2023/09/15 08:32:31;;;;;;;5.25;2.63;;;25.30;99.90;;;;;;5130994;27;20035;-54
2023/09/15 08:34:57;;;;;;;5.68;3.38;;;25.50;99.90;;;;;;5097873;28;20061;-45
2023/09/15 08:37:23;;;;;;;4.88;3.28;;;25.70;99.90;;;;;;5126363;27;20586;-60
2023/09/15 08:39:49;;;;;;;9.38;3.45;;;25.80;99.90;;;;;;5128986;27;20114;-57
2023/09/15 08:42:27;;;;;;;4.70;3.00;;;26.00;99.90;;;;;;5118137;27;20417;-55
2023/09/15 08:44:54;;;;;;;6.13;3.28;;;26.40;99.90;;;;;;5127955;27;20023;-60
2023/09/15 08:47:23;;;;;;;6.03;3.75;;;26.60;99.90;;;;;;5122023;27;20565;-56
2023/09/15 08:49:51;;;;;;;7.30;4.47;;;26.90;99.90;;;;;;5120788;27;20043;-56
2023/09/15 08:52:17;;;;;;;7.75;5.03;;;27.10;99.90;;;;;;5127730;27;20027;-56
2023/09/15 08:54:45;;;;;;;6.57;3.95;;;27.20;99.90;;;;;;5114397;27;20437;-52
2023/09/15 08:57:11;;;;;;;6.05;3.53;;;26.80;99.90;;;;;;5113855;28;20020;-54
2023/09/15 08:59:37;;;;;;;8.20;3.75;;;26.80;99.90;;;;;;5123679;27;20042;-51
2023/09/15 09:02:03;;;;;;;6.10;3.03;;;27.10;99.90;;;;;;5120618;27;20030;-58
2023/09/15 09:04:29;;;;;;;6.75;3.92;;;27.30;99.90;;;;;;5120396;27;20023;-54
2023/09/15 09:06:59;;;;;;;7.15;3.58;;;27.60;99.90;;;;;;5123801;27;20023;-41
2023/09/15 09:09:25;;;;;;;7.78;3.15;;;27.50;99.90;;;;;;5133180;27;20041;-58
2023/09/15 09:11:51;;;;;;;5.32;3.05;;;27.60;99.90;;;;;;5133874;27;20398;-44
2023/09/15 09:14:16;;;;;;;5.15;2.95;;;27.90;99.90;;;;;;5130649;27;20032;-48
2023/09/15 09:16:47;;;;;;;4.72;2.72;;;27.60;99.90;;;;;;5120685;27;20361;-50
2023/09/15 09:19:13;;;;;;;5.10;3.30;;;27.70;99.90;;;;;;5129124;27;20015;-54
2023/09/15 09:21:39;;;;;;;5.03;2.78;;;27.90;99.90;;;;;;5124588;27;20011;-51
2023/09/15 09:24:05;;;;;;;7.32;2.75;;;27.90;99.90;;;;;;5121070;27;20024;-47
2023/09/15 09:26:31;;;;;;;6.65;3.67;;;27.70;99.90;;;;;;5113193;27;20488;-51
2023/09/15 09:28:57;;;;;;;4.53;2.42;;;27.80;99.90;;;;;;5114182;27;20020;-42
2023/09/15 09:31:25;;;;;;;3.35;2.22;;;28.10;99.90;;;;;;5113582;28;20036;-55
2023/09/15 09:33:52;;;;;;;4.20;2.30;;;28.20;99.90;;;;;;5113364;28;20019;-51
2023/09/15 09:36:18;;;;;;;4.28;2.53;;;28.40;99.90;;;;;;5113473;28;20142;-56
2023/09/15 09:38:46;;;;;;;3.80;2.00;;;28.10;99.90;;;;;;5117107;27;20040;-55
2023/09/15 09:41:13;;;;;;;3.70;2.25;;;28.60;99.90;;;;;;5111485;28;20106;-55
2023/09/15 09:43:40;;;;;;;3.92;2.10;;;28.70;99.00;;;;;;5111410;28;20023;-43
2023/09/15 09:46:06;;;;;;;4.60;1.90;;;28.50;98.60;;;;;;5110448;28;20051;-47
2023/09/15 09:48:39;;;;;;;4.10;1.95;;;28.50;99.90;;;;;;5110815;28;20028;-59
2023/09/15 09:51:06;;;;;;;4.43;2.10;;;28.70;99.20;;;;;;5110193;28;20034;-56
2023/09/15 09:53:35;;;;;;;5.90;2.40;;;29.10;98.80;;;;;;5110950;28;20031;-51
2023/09/15 09:56:05;;;;;;;4.18;2.78;;;29.30;98.50;;;;;;5126346;27;20026;-55
2023/09/15 09:58:38;;;;;;;6.93;2.28;;;29.60;98.30;;;;;;5131831;27;20027;-51
2023/09/15 10:01:09;;;;;;;3.10;1.75;;;29.70;98.50;;;;;;5131515;27;20054;-47
2023/09/15 10:03:35;;;;;;;2.67;1.75;;;30.00;98.40;;;;;;5132275;27;20015;-51
2023/09/15 10:06:03;;;;;;;4.05;1.60;;;30.20;96.70;;;;;;5133255;27;20152;-53
2023/09/15 10:08:30;;;;;;;3.88;2.15;;;30.20;96.90;;;;;;5133476;27;20031;-47
2023/09/15 10:10:56;;;;;;;3.80;1.88;;;30.00;95.70;;;;;;5133379;27;20039;-58
2023/09/15 10:13:23;;;;;;;3.65;1.80;;;29.90;95.30;;;;;;5133175;27;20102;-55
2023/09/15 10:15:51;;;;;;;3.55;1.77;;;30.00;94.40;;;;;;5133144;27;20035;-53
2023/09/15 10:18:19;;;;;;;4.65;2.00;;;29.80;95.10;;;;;;5132858;27;20102;-46
2023/09/15 10:20:51;;;;;;;3.78;1.77;;;29.80;96.10;;;;;;5133463;27;20031;-45
2023/09/15 10:23:17;;;;;;;4.20;1.60;;;30.00;95.00;;;;;;5133031;27;20019;-52
2023/09/15 10:25:52;;;;;;;3.42;1.67;;;30.00;96.20;;;;;;5133158;27;20065;-51
2023/09/15 10:28:21;;;;;;;3.40;1.70;;;30.30;95.50;;;;;;5132826;27;20487;-50
2023/09/15 10:30:46;;;;;;;2.85;1.85;;;29.50;94.50;;;;;;5133088;27;20058;-55
2023/09/15 10:33:12;;;;;;;3.45;1.85;;;29.70;95.30;;;;;;5133049;27;20418;-49
2023/09/15 10:35:43;;;;;;;3.30;1.65;;;29.40;94.20;;;;;;5132868;27;20023;-52
2023/09/15 10:38:09;;;;;;;2.42;1.50;;;29.30;95.20;;;;;;5132670;27;20047;-54
2023/09/15 10:40:49;;;;;;;3.47;1.58;;;29.60;94.50;;;;;;5132556;27;20034;-56
2023/09/15 10:43:17;;;;;;;3.30;1.63;;;29.70;94.40;;;;;;5132899;27;20023;-43
2023/09/15 10:46:03;;;;;;;3.00;1.77;;;30.00;93.30;;;;;;5132401;27;20024;-46
2023/09/15 10:48:43;;;;;;;3.65;2.05;;;30.30;93.50;;;;;;5132697;27;20035;-47
2023/09/15 10:51:10;;;;;;;3.50;1.90;;;30.00;92.60;;;;;;5118538;27;20035;-45
2023/09/15 10:53:49;;;;;;;2.92;1.63;;;30.10;94.80;;;;;;5123532;27;20076;-47
2023/09/15 10:56:16;;;;;;;;;;;30.20;94.70;;;;;;5129361;27;20054;-47
2023/09/15 10:58:42;;;;;;;4.78;2.28;;;30.00;94.20;;;;;;5132599;27;19907;-45
2023/09/15 11:01:10;;;;;;;6.13;1.90;;;29.90;93.10;;;;;;5132305;27;20027;-48
2023/09/15 11:03:37;;;;;;;3.40;1.65;;;29.70;95.50;;;;;;5132359;27;20023;-52
2023/09/15 11:06:08;;;;;;;5.75;2.30;;;30.00;94.40;;;;;;5132531;27;20015;-50
2023/09/15 11:08:34;;;;;;;4.10;2.45;;;29.70;94.00;;;;;;5131862;27;20034;-49
2023/09/15 11:11:07;;;;;;;3.45;2.08;;;29.60;94.40;;;;;;5130892;27;20035;-52
2023/09/15 11:13:33;;;;;;;3.25;2.00;;;28.90;95.10;;;;;;5130397;27;20027;-48
2023/09/15 11:15:59;;;;;;;3.88;1.92;;;29.10;94.70;;;;;;5131421;27;20025;-44
2023/09/15 11:18:26;;;;;;;4.10;2.72;;;29.10;94.90;;;;;;5119211;27;20076;-48
2023/09/15 11:20:51;;;;;;;4.35;2.85;;;29.20;95.90;;;;;;5127544;27;20027;-48
2023/09/15 11:23:17;;;;;;;2.50;1.73;;;29.40;94.20;;;;;;5127041;27;20030;-55
2023/09/15 11:25:44;;;;;;;3.55;1.85;;;29.60;95.00;;;;;;5124198;27;20027;-51
2023/09/15 11:28:16;;;;;;;4.22;1.80;;;29.70;94.10;;;;;;5122140;27;20072;-52
2023/09/15 11:30:42;;;;;;;2.80;1.65;;;29.70;93.30;;;;;;5128208;27;20027;-55
2023/09/15 11:33:08;;;;;;;3.00;1.80;;;29.80;92.70;;;;;;5125258;27;20027;-49
2023/09/15 11:35:35;;;;;;;2.95;1.73;;;29.80;92.90;;;;;;5119679;27;20027;-55
2023/09/15 11:38:04;;;;;;;4.32;1.90;;;29.90;92.80;;;;;;5116416;27;20049;-56
2023/09/15 11:40:30;;;;;;;3.03;1.77;;;29.60;93.40;;;;;;5122244;27;20020;-53
2023/09/15 11:43:00;;;;;;;4.32;2.20;;;29.40;92.80;;;;;;5124041;27;20039;-54
2023/09/15 11:45:28;;;;;;;2.67;1.80;;;29.30;93.90;;;;;;5125783;27;20110;-57
2023/09/15 11:47:59;;;;;;;3.72;1.50;;;29.00;92.80;;;;;;5124797;27;20051;-53
2023/09/15 11:50:25;;;;;;;2.92;1.58;;;28.90;92.60;;;;;;5126593;27;20131;-54
2023/09/15 11:52:51;;;;;;;3.28;1.50;;;29.20;93.00;;;;;;5092493;28;20468;-48
2023/09/15 11:55:20;;;;;;;2.70;1.67;;;28.90;92.10;;;;;;5119533;28;20072;-45
2023/09/15 11:57:46;;;;;;;2.83;1.52;;;28.90;93.30;;;;;;5117693;27;20521;-45
2023/09/15 12:00:16;;;;;;;5.47;1.65;;;29.30;92.90;;;;;;5122141;28;20051;-43
2023/09/15 12:02:44;;;;;;;4.25;1.60;;;29.20;92.40;;;;;;5113913;28;20118;-44
2023/09/15 12:05:10;;;;;;;2.67;1.40;;;29.10;92.20;;;;;;5110881;28;20038;-43
2023/09/15 12:07:36;;;;;;;2.75;1.35;;;29.20;91.90;;;;;;5117630;28;20072;-42
2023/09/15 12:10:03;;;;;;;2.45;1.27;;;29.10;92.80;;;;;;5110742;28;20393;-46
2023/09/15 12:12:29;;;;;;;3.38;1.70;;;29.00;93.00;;;;;;5110747;28;20539;-46
2023/09/15 12:15:00;;;;;;;3.88;1.90;;;28.90;92.60;;;;;;5114295;28;20094;-44
2023/09/15 12:17:29;;;;;;;2.90;1.20;;;28.90;93.30;;;;;;5115072;28;20107;-51
2023/09/15 12:19:59;;;;;;;2.17;1.27;;;28.30;92.70;;;;;;5114927;28;20577;-51
2023/09/15 12:22:38;;;;;;;2.15;1.30;;;28.60;94.00;;;;;;5114708;28;20494;-42
2023/09/15 12:25:05;;;;;;;2.15;1.27;;;28.60;93.90;;;;;;5114700;28;20024;-47
2023/09/15 12:27:32;;;;;;;2.85;1.40;;;28.70;93.80;;;;;;5120348;27;20056;-52
2023/09/15 12:30:02;;;;;;;1.27;1.05;;;28.70;93.50;;;;;;5127406;27;20092;-54
2023/09/15 12:32:30;;;;;;;3.28;1.35;;;28.20;94.10;;;;;;5113556;27;20120;-50
2023/09/15 12:34:56;;;;;;;3.05;1.50;;;28.30;93.40;;;;;;5113512;27;20380;-49
2023/09/15 12:37:25;;;;;;;4.47;1.50;;;28.30;92.80;;;;;;5113827;27;20043;-55
2023/09/15 12:39:51;;;;;;;2.40;1.40;;;28.40;94.20;;;;;;5114793;27;20104;-47
2023/09/15 12:42:16;;;;;;;1.92;1.20;;;28.20;93.20;;;;;;5127658;27;20043;-48
2023/09/15 12:44:42;;;;;;;3.00;1.40;;;28.00;92.40;;;;;;5133671;27;20387;-49